sensor_id;sensor_type;location;lat;lon;timestamp;pressure;altitude;pressure_sealevel;temperature;humidity
15308;BME280;7755;52.208;6.964;2023-02-11T00:02:07;102885.22;;;6.57;100.00
15308;BME280;7755;52.208;6.964;2023-02-11T00:06:39;102890.47;;;6.59;100.00
15308;BME280;7755;52.208;6.964;2023-02-11T00:11:05;102902.63;;;6.63;100.00
15308;BME280;7755;52.208;6.964;2023-02-11T00:15:24;102891.97;;;6.62;100.00
15308;BME280;7755;52.208;6.964;2023-02-11T00:19:27;102881.00;;;6.63;100.00
15308;BME280;7755;52.208;6.964;2023-02-11T00:23:33;102895.06;;;6.67;100.00
15308;BME280;7755;52.208;6.964;2023-02-11T00:27:38;102888.81;;;6.66;100.00
15308;BME280;7755;52.208;6.964;2023-02-11T00:31:42;102887.97;;;6.66;100.00
15308;BME280;7755;52.208;6.964;2023-02-11T00:35:45;102908.56;;;6.67;100.00
15308;BME280;7755;52.208;6.964;2023-02-11T00:39:49;102914.50;;;6.70;100.00
15308;BME280;7755;52.208;6.964;2023-02-11T00:43:54;102907.09;;;6.72;100.00
15308;BME280;7755;52.208;6.964;2023-02-11T00:47:57;102903.69;;;6.70;100.00
15308;BME280;7755;52.208;6.964;2023-02-11T00:52:02;102901.84;;;6.71;100.00
15308;BME280;7755;52.208;6.964;2023-02-11T00:56:06;102902.81;;;6.70;100.00
15308;BME280;7755;52.208;6.964;2023-02-11T01:00:13;102900.84;;;6.72;100.00
15308;BME280;7755;52.208;6.964;2023-02-11T01:04:16;102894.91;;;6.76;100.00
15308;BME280;7755;52.208;6.964;2023-02-11T01:08:19;102892.94;;;6.78;100.00
15308;BME280;7755;52.208;6.964;2023-02-11T01:12:23;102874.69;;;6.80;100.00
15308;BME280;7755;52.208;6.964;2023-02-11T01:16:28;102862.00;;;6.81;100.00
15308;BME280;7755;52.208;6.964;2023-02-11T01:20:31;102873.66;;;6.81;100.00
15308;BME280;7755;52.208;6.964;2023-02-11T01:24:34;102861.31;;;6.79;100.00
15308;BME280;7755;52.208;6.964;2023-02-11T01:28:37;102868.44;;;6.80;100.00
15308;BME280;7755;52.208;6.964;2023-02-11T01:32:42;102879.41;;;6.78;100.00
15308;BME280;7755;52.208;6.964;2023-02-11T01:36:45;102889.88;;;6.81;100.00
15308;BME280;7755;52.208;6.964;2023-02-11T01:40:52;102882.13;;;6.78;100.00
15308;BME280;7755;52.208;6.964;2023-02-11T01:44:56;102879.41;;;6.78;100.00
15308;BME280;7755;52.208;6.964;2023-02-11T01:49:05;102876.53;;;6.80;100.00
15308;BME280;7755;52.208;6.964;2023-02-11T01:53:09;102877.22;;;6.82;100.00
15308;BME280;7755;52.208;6.964;2023-02-11T01:57:28;102865.91;;;6.78;100.00
15308;BME280;7755;52.208;6.964;2023-02-11T02:01:33;102846.13;;;6.78;100.00
15308;BME280;7755;52.208;6.964;2023-02-11T02:05:42;102847.97;;;6.77;100.00
15308;BME280;7755;52.208;6.964;2023-02-11T02:09:51;102853.53;;;6.76;100.00
15308;BME280;7755;52.208;6.964;2023-02-11T02:13:59;102850.69;;;6.77;100.00
15308;BME280;7755;52.208;6.964;2023-02-11T02:18:18;102833.09;;;6.73;100.00
15308;BME280;7755;52.208;6.964;2023-02-11T02:22:45;102817.03;;;6.72;100.00
15308;BME280;7755;52.208;6.964;2023-02-11T02:27:22;102853.69;;;6.74;100.00
15308;BME280;7755;52.208;6.964;2023-02-11T02:31:44;102838.50;;;6.73;100.00
15308;BME280;7755;52.208;6.964;2023-02-11T02:36:03;102830.38;;;6.73;100.00
15308;BME280;7755;52.208;6.964;2023-02-11T02:40:14;102835.78;;;6.73;100.00
15308;BME280;7755;52.208;6.964;2023-02-11T02:44:19;102833.25;;;6.72;100.00
15308;BME280;7755;52.208;6.964;2023-02-11T02:48:24;102848.63;;;6.71;100.00
15308;BME280;7755;52.208;6.964;2023-02-11T02:52:34;102839.50;;;6.72;100.00
15308;BME280;7755;52.208;6.964;2023-02-11T02:56:43;102832.91;;;6.75;100.00
15308;BME280;7755;52.208;6.964;2023-02-11T03:00:57;102816.03;;;6.73;100.00
15308;BME280;7755;52.208;6.964;2023-02-11T03:05:05;102813.31;;;6.73;100.00
15308;BME280;7755;52.208;6.964;2023-02-11T03:09:15;102811.75;;;6.70;100.00
15308;BME280;7755;52.208;6.964;2023-02-11T03:13:25;102808.94;;;6.72;100.00
15308;BME280;7755;52.208;6.964;2023-02-11T03:17:30;102806.22;;;6.72;100.00
15308;BME280;7755;52.208;6.964;2023-02-11T03:21:38;102804.53;;;6.71;100.00
15308;BME280;7755;52.208;6.964;2023-02-11T03:25:48;102805.22;;;6.73;100.00
15308;BME280;7755;52.208;6.964;2023-02-11T03:29:58;102818.19;;;6.69;100.00
15308;BME280;7755;52.208;6.964;2023-02-11T03:34:07;102804.53;;;6.71;100.00
15308;BME280;7755;52.208;6.964;2023-02-11T03:38:13;102815.47;;;6.69;100.00
15308;BME280;7755;52.208;6.964;2023-02-11T03:42:22;102816.66;;;6.67;100.00
15308;BME280;7755;52.208;6.964;2023-02-11T03:46:30;102823.09;;;6.66;100.00
15308;BME280;7755;52.208;6.964;2023-02-11T03:50:35;102832.22;;;6.65;100.00
15308;BME280;7755;52.208;6.964;2023-02-11T03:54:40;102837.63;;;6.65;100.00
15308;BME280;7755;52.208;6.964;2023-02-11T03:58:47;102833.06;;;6.65;100.00
15308;BME280;7755;52.208;6.964;2023-02-11T04:02:50;102835.06;;;6.63;100.00
15308;BME280;7755;52.208;6.964;2023-02-11T04:06:54;102843.31;;;6.62;100.00
15308;BME280;7755;52.208;6.964;2023-02-11T04:10:58;102837.44;;;6.66;100.00
15308;BME280;7755;52.208;6.964;2023-02-11T04:15:03;102847.41;;;6.66;100.00
15308;BME280;7755;52.208;6.964;2023-02-11T04:19:06;102846.56;;;6.65;100.00
15308;BME280;7755;52.208;6.964;2023-02-11T04:23:09;102839.47;;;6.64;100.00
15308;BME280;7755;52.208;6.964;2023-02-11T04:27:12;102839.78;;;6.61;100.00
15308;BME280;7755;52.208;6.964;2023-02-11T04:31:16;102838.09;;;6.60;100.00
15308;BME280;7755;52.208;6.964;2023-02-11T04:35:19;102821.88;;;6.60;100.00
15308;BME280;7755;52.208;6.964;2023-02-11T04:39:22;102834.53;;;6.60;100.00
15308;BME280;7755;52.208;6.964;2023-02-11T04:43:26;102835.06;;;6.63;100.00
15308;BME280;7755;52.208;6.964;2023-02-11T04:47:31;102834.91;;;6.65;100.00
15308;BME280;7755;52.208;6.964;2023-02-11T04:51:34;102843.03;;;6.65;100.00
15308;BME280;7755;52.208;6.964;2023-02-11T04:55:37;102834.22;;;6.63;100.00
15308;BME280;7755;52.208;6.964;2023-02-11T04:59:42;102834.75;;;6.66;100.00
15308;BME280;7755;52.208;6.964;2023-02-11T05:03:46;102837.28;;;6.68;100.00
15308;BME280;7755;52.208;6.964;2023-02-11T05:07:50;102853.31;;;6.69;100.00
15308;BME280;7755;52.208;6.964;2023-02-11T05:11:52;102844.75;;;6.74;100.00
15308;BME280;7755;52.208;6.964;2023-02-11T05:15:56;102850.16;;;6.74;100.00
15308;BME280;7755;52.208;6.964;2023-02-11T05:20:00;102838.50;;;6.73;100.00
15308;BME280;7755;52.208;6.964;2023-02-11T05:24:05;102845.09;;;6.71;100.00
15308;BME280;7755;52.208;6.964;2023-02-11T05:28:08;102839.34;;;6.74;100.00
15308;BME280;7755;52.208;6.964;2023-02-11T05:32:11;102840.19;;;6.74;100.00
15308;BME280;7755;52.208;6.964;2023-02-11T05:36:15;102836.63;;;6.74;100.00
15308;BME280;7755;52.208;6.964;2023-02-11T05:40:19;102849.97;;;6.75;100.00
15308;BME280;7755;52.208;6.964;2023-02-11T05:44:21;102839.50;;;6.72;100.00
15308;BME280;7755;52.208;6.964;2023-02-11T05:48:25;102835.78;;;6.73;100.00
15308;BME280;7755;52.208;6.964;2023-02-11T05:52:29;102828.53;;;6.74;100.00
15308;BME280;7755;52.208;6.964;2023-02-11T05:56:33;102817.38;;;6.77;100.00
15308;BME280;7755;52.208;6.964;2023-02-11T06:00:37;102830.38;;;6.73;100.00
15308;BME280;7755;52.208;6.964;2023-02-11T06:04:40;102839.34;;;6.74;100.00
15308;BME280;7755;52.208;6.964;2023-02-11T06:08:44;102828.19;;;6.77;100.00
15308;BME280;7755;52.208;6.964;2023-02-11T06:12:47;102825.34;;;6.78;100.00
15308;BME280;7755;52.208;6.964;2023-02-11T06:16:51;102817.72;;;6.74;100.00
15308;BME280;7755;52.208;6.964;2023-02-11T06:20:54;102822.09;;;6.75;100.00
15308;BME280;7755;52.208;6.964;2023-02-11T06:24:58;102817.72;;;6.74;100.00
15308;BME280;7755;52.208;6.964;2023-02-11T06:29:03;102832.06;;;6.74;100.00
15308;BME280;7755;52.208;6.964;2023-02-11T06:33:06;102839.34;;;6.74;100.00
15308;BME280;7755;52.208;6.964;2023-02-11T06:37:09;102845.41;;;6.76;100.00
15308;BME280;7755;52.208;6.964;2023-02-11T06:41:16;102841.03;;;6.75;100.00
15308;BME280;7755;52.208;6.964;2023-02-11T06:45:20;102850.34;;;6.80;100.00
15308;BME280;7755;52.208;6.964;2023-02-11T06:49:24;102846.13;;;6.78;100.00
15308;BME280;7755;52.208;6.964;2023-02-11T06:53:27;102842.06;;;6.82;100.00
15308;BME280;7755;52.208;6.964;2023-02-11T06:57:34;102857.13;;;6.84;100.00
15308;BME280;7755;52.208;6.964;2023-02-11T07:01:37;102844.78;;;6.82;100.00
15308;BME280;7755;52.208;6.964;2023-02-11T07:05:41;102847.31;;;6.83;100.00
15308;BME280;7755;52.208;6.964;2023-02-11T07:09:45;102841.91;;;6.83;100.00
15308;BME280;7755;52.208;6.964;2023-02-11T07:13:50;102832.94;;;6.83;100.00
15308;BME280;7755;52.208;6.964;2023-02-11T07:17:53;102834.28;;;6.79;100.00
15308;BME280;7755;52.208;6.964;2023-02-11T07:21:56;102835.13;;;6.79;100.00
15308;BME280;7755;52.208;6.964;2023-02-11T07:26:02;102840.00;;;6.76;100.00
15308;BME280;7755;52.208;6.964;2023-02-11T07:30:07;102833.59;;;6.77;100.00
15308;BME280;7755;52.208;6.964;2023-02-11T07:34:11;102847.97;;;6.77;100.00
15308;BME280;7755;52.208;6.964;2023-02-11T07:38:14;102846.81;;;6.80;100.00
15308;BME280;7755;52.208;6.964;2023-02-11T07:42:17;102845.94;;;6.79;100.00
15308;BME280;7755;52.208;6.964;2023-02-11T07:46:23;102858.28;;;6.82;100.00
15308;BME280;7755;52.208;6.964;2023-02-11T07:50:26;102855.28;;;6.85;100.00
15308;BME280;7755;52.208;6.964;2023-02-11T07:54:29;102863.53;;;6.83;100.00
15308;BME280;7755;52.208;6.964;2023-02-11T07:58:33;102859.84;;;6.84;100.00
15308;BME280;7755;52.208;6.964;2023-02-11T08:02:39;102860.69;;;6.85;100.00
15308;BME280;7755;52.208;6.964;2023-02-11T08:06:42;102869.31;;;6.89;100.00
15308;BME280;7755;52.208;6.964;2023-02-11T08:10:46;102882.50;;;6.92;100.00
15308;BME280;7755;52.208;6.964;2023-02-11T08:14:49;102881.16;;;6.96;100.00
15308;BME280;7755;52.208;6.964;2023-02-11T08:18:55;102887.28;;;6.98;100.00
15308;BME280;7755;52.208;6.964;2023-02-11T08:22:59;102889.47;;;7.02;100.00
15308;BME280;7755;52.208;6.964;2023-02-11T08:27:03;102891.00;;;7.05;100.00
15308;BME280;7755;52.208;6.964;2023-02-11T08:31:06;102890.84;;;7.06;100.00
15308;BME280;7755;52.208;6.964;2023-02-11T08:35:11;102888.31;;;7.05;100.00
15308;BME280;7755;52.208;6.964;2023-02-11T08:39:15;102890.50;;;7.09;100.00
15308;BME280;7755;52.208;6.964;2023-02-11T08:43:21;102889.19;;;7.14;100.00
15308;BME280;7755;52.208;6.964;2023-02-11T08:47:24;102893.75;;;7.13;100.00
15308;BME280;7755;52.208;6.964;2023-02-11T08:51:29;102897.47;;;7.20;100.00
15308;BME280;7755;52.208;6.964;2023-02-11T08:55:32;102905.78;;;7.27;100.00
15308;BME280;7755;52.208;6.964;2023-02-11T08:59:35;102910.69;;;7.31;100.00
15308;BME280;7755;52.208;6.964;2023-02-11T09:03:40;102905.63;;;7.36;100.00
15308;BME280;7755;52.208;6.964;2023-02-11T09:07:45;102921.56;;;7.39;100.00
15308;BME280;7755;52.208;6.964;2023-02-11T09:11:48;102920.19;;;7.44;100.00
15308;BME280;7755;52.208;6.964;2023-02-11T09:15:51;102925.97;;;7.49;100.00
15308;BME280;7755;52.208;6.964;2023-02-11T09:19:54;102924.78;;;7.51;100.00
15308;BME280;7755;52.208;6.964;2023-02-11T09:23:58;102928.03;;;7.55;100.00
15308;BME280;7755;52.208;6.964;2023-02-11T09:28:01;102937.50;;;7.59;100.00
15308;BME280;7755;52.208;6.964;2023-02-11T09:32:05;102943.25;;;7.64;100.00
15308;BME280;7755;52.208;6.964;2023-02-11T09:36:11;102953.75;;;7.67;100.00
15308;BME280;7755;52.208;6.964;2023-02-11T09:40:16;102949.69;;;7.71;100.00
15308;BME280;7755;52.208;6.964;2023-02-11T09:44:23;102959.38;;;7.74;100.00
15308;BME280;7755;52.208;6.964;2023-02-11T09:48:30;102966.97;;;7.78;100.00
15308;BME280;7755;52.208;6.964;2023-02-11T09:52:43;102968.00;;;7.77;100.00
15308;BME280;7755;52.208;6.964;2023-02-11T09:56:49;102977.13;;;7.76;100.00
15308;BME280;7755;52.208;6.964;2023-02-11T10:01:01;102974.09;;;7.79;100.00
15308;BME280;7755;52.208;6.964;2023-02-11T10:05:18;102979.34;;;7.81;100.00
15308;BME280;7755;52.208;6.964;2023-02-11T10:09:44;102979.19;;;7.82;100.00
15308;BME280;7755;52.208;6.964;2023-02-11T10:14:00;102993.25;;;7.86;100.00
15308;BME280;7755;52.208;6.964;2023-02-11T10:18:20;103011.19;;;7.95;100.00
15308;BME280;7755;52.208;6.964;2023-02-11T10:22:47;103027.81;;;8.08;100.00
15308;BME280;7755;52.208;6.964;2023-02-11T10:26:51;103015.47;;;8.14;100.00
15308;BME280;7755;52.208;6.964;2023-02-11T10:30:58;103009.69;;;8.17;100.00
15308;BME280;7755;52.208;6.964;2023-02-11T10:35:12;103009.38;;;8.20;100.00
15308;BME280;7755;52.208;6.964;2023-02-11T10:39:18;103014.63;;;8.30;100.00
15308;BME280;7755;52.208;6.964;2023-02-11T10:43:25;103026.00;;;8.33;100.00
15308;BME280;7755;52.208;6.964;2023-02-11T10:47:34;103029.75;;;8.48;100.00
15308;BME280;7755;52.208;6.964;2023-02-11T10:51:38;103029.38;;;8.60;100.00
15308;BME280;7755;52.208;6.964;2023-02-11T10:55:49;103022.78;;;8.62;100.00
15308;BME280;7755;52.208;6.964;2023-02-11T10:59:57;103026.84;;;8.74;100.00
15308;BME280;7755;52.208;6.964;2023-02-11T11:04:02;103025.78;;;8.92;100.00
15308;BME280;7755;52.208;6.964;2023-02-11T11:08:07;103014.25;;;8.98;100.00
15308;BME280;7755;52.208;6.964;2023-02-11T11:12:23;103005.28;;;8.97;100.00
15308;BME280;7755;52.208;6.964;2023-02-11T11:16:28;103011.91;;;8.95;100.00
15308;BME280;7755;52.208;6.964;2023-02-11T11:20:33;103018.84;;;8.97;100.00
15308;BME280;7755;52.208;6.964;2023-02-11T11:24:45;103027.59;;;9.08;100.00
15308;BME280;7755;52.208;6.964;2023-02-11T11:28:59;103023.19;;;9.23;100.00
15308;BME280;7755;52.208;6.964;2023-02-11T11:33:03;103024.34;;;9.28;100.00
15308;BME280;7755;52.208;6.964;2023-02-11T11:37:12;103021.28;;;9.32;100.00
15308;BME280;7755;52.208;6.964;2023-02-11T11:41:24;103018.72;;;9.38;100.00
15308;BME280;7755;52.208;6.964;2023-02-11T11:45:27;103025.63;;;9.49;100.00
15308;BME280;7755;52.208;6.964;2023-02-11T11:49:34;103021.53;;;9.53;100.00
15308;BME280;7755;52.208;6.964;2023-02-11T11:53:44;103024.59;;;9.50;100.00
15308;BME280;7755;52.208;6.964;2023-02-11T11:57:50;103018.63;;;9.54;100.00
15308;BME280;7755;52.208;6.964;2023-02-11T12:02:16;103024.25;;;9.53;100.00
15308;BME280;7755;52.208;6.964;2023-02-11T12:06:30;103032.66;;;9.66;100.00
15308;BME280;7755;52.208;6.964;2023-02-11T12:10:50;103011.91;;;9.73;100.00
15308;BME280;7755;52.208;6.964;2023-02-11T12:15:03;102999.31;;;9.80;100.00
15308;BME280;7755;52.208;6.964;2023-02-11T12:23:55;102984.22;;;9.78;100.00
15308;BME280;7755;52.208;6.964;2023-02-11T12:28:16;102994.78;;;9.73;100.00
15308;BME280;7755;52.208;6.964;2023-02-11T12:32:29;103000.72;;;9.76;100.00
15308;BME280;7755;52.208;6.964;2023-02-11T12:36:55;103003.50;;;9.91;100.00
15308;BME280;7755;52.208;6.964;2023-02-11T12:41:16;103009.66;;;10.08;100.00
15308;BME280;7755;52.208;6.964;2023-02-11T12:50:34;102994.03;;;10.10;100.00
15308;BME280;7755;52.208;6.964;2023-02-11T12:54:48;103004.53;;;10.13;100.00
15308;BME280;7755;52.208;6.964;2023-02-11T12:58:58;102998.91;;;10.15;100.00
15308;BME280;7755;52.208;6.964;2023-02-11T13:03:06;102997.28;;;10.05;100.00
15308;BME280;7755;52.208;6.964;2023-02-11T13:07:20;103007.63;;;10.10;100.00
15308;BME280;7755;52.208;6.964;2023-02-11T13:11:26;103008.81;;;10.07;100.00
15308;BME280;7755;52.208;6.964;2023-02-11T13:15:30;102991.00;;;10.05;100.00
15308;BME280;7755;52.208;6.964;2023-02-11T13:19:38;102988.94;;;10.07;100.00
15308;BME280;7755;52.208;6.964;2023-02-11T13:23:51;102986.84;;;10.17;100.00
15308;BME280;7755;52.208;6.964;2023-02-11T13:28:04;102983.44;;;10.23;100.00
15308;BME280;7755;52.208;6.964;2023-02-11T13:32:16;102992.91;;;10.27;100.00
15308;BME280;7755;52.208;6.964;2023-02-11T13:36:24;102987.28;;;10.29;100.00
15308;BME280;7755;52.208;6.964;2023-02-11T13:40:32;102986.28;;;10.22;100.00
15308;BME280;7755;52.208;6.964;2023-02-11T13:44:36;102980.00;;;10.21;100.00
15308;BME280;7755;52.208;6.964;2023-02-11T13:48:45;102982.56;;;10.23;100.00
15308;BME280;7755;52.208;6.964;2023-02-11T13:52:56;102979.22;;;10.35;100.00
15308;BME280;7755;52.208;6.964;2023-02-11T13:57:33;102998.56;;;10.41;100.00
15308;BME280;7755;52.208;6.964;2023-02-11T14:02:00;103004.66;;;10.43;100.00
15308;BME280;7755;52.208;6.964;2023-02-11T14:06:26;103005.81;;;10.48;100.00
15308;BME280;7755;52.208;6.964;2023-02-11T14:10:49;102998.38;;;10.42;100.00
15308;BME280;7755;52.208;6.964;2023-02-11T14:19:38;102995.97;;;10.47;100.00
15308;BME280;7755;52.208;6.964;2023-02-11T14:23:42;103001.69;;;10.52;100.00
15308;BME280;7755;52.208;6.964;2023-02-11T14:27:49;102994.94;;;10.48;100.00
15308;BME280;7755;52.208;6.964;2023-02-11T14:32:00;102999.19;;;10.51;100.00
15308;BME280;7755;52.208;6.964;2023-02-11T14:36:14;103009.88;;;10.52;100.00
15308;BME280;7755;52.208;6.964;2023-02-11T14:40:27;103014.91;;;10.55;100.00
15308;BME280;7755;52.208;6.964;2023-02-11T14:44:33;103018.47;;;10.56;100.00
15308;BME280;7755;52.208;6.964;2023-02-11T14:48:42;103014.38;;;10.60;100.00
15308;BME280;7755;52.208;6.964;2023-02-11T14:52:48;103006.88;;;10.62;100.00
15308;BME280;7755;52.208;6.964;2023-02-11T14:57:05;103015.41;;;10.59;100.00
15308;BME280;7755;52.208;6.964;2023-02-11T15:01:23;103021.31;;;10.62;100.00
15308;BME280;7755;52.208;6.964;2023-02-11T15:05:29;103013.25;;;10.69;100.00
15308;BME280;7755;52.208;6.964;2023-02-11T15:09:35;103011.88;;;10.73;100.00
15308;BME280;7755;52.208;6.964;2023-02-11T15:13:39;103011.03;;;10.73;100.00
15308;BME280;7755;52.208;6.964;2023-02-11T15:17:50;103008.31;;;10.73;100.00
15308;BME280;7755;52.208;6.964;2023-02-11T15:21:55;103003.16;;;10.78;100.00
15308;BME280;7755;52.208;6.964;2023-02-11T15:25:59;103012.34;;;10.77;100.00
15308;BME280;7755;52.208;6.964;2023-02-11T15:30:23;103004.94;;;10.71;100.00
15308;BME280;7755;52.208;6.964;2023-02-11T15:34:26;103008.66;;;10.70;100.00
15308;BME280;7755;52.208;6.964;2023-02-11T15:38:31;103024.16;;;10.69;100.00
15308;BME280;7755;52.208;6.964;2023-02-11T15:42:51;103016.91;;;10.61;100.00
15308;BME280;7755;52.208;6.964;2023-02-11T15:46:58;103025.66;;;10.57;100.00
15308;BME280;7755;52.208;6.964;2023-02-11T15:51:08;103022.63;;;10.52;100.00
15308;BME280;7755;52.208;6.964;2023-02-11T15:55:16;103037.06;;;10.52;100.00
15308;BME280;7755;52.208;6.964;2023-02-11T15:59:24;103035.53;;;10.50;100.00
15308;BME280;7755;52.208;6.964;2023-02-11T16:03:29;103034.22;;;10.46;100.00
15308;BME280;7755;52.208;6.964;2023-02-11T16:07:38;103040.31;;;10.48;100.00
15308;BME280;7755;52.208;6.964;2023-02-11T16:11:54;103043.88;;;10.48;100.00
15308;BME280;7755;52.208;6.964;2023-02-11T16:16:00;103046.78;;;10.47;100.00
15308;BME280;7755;52.208;6.964;2023-02-11T16:24:21;103052.41;;;10.45;100.00
15308;BME280;7755;52.208;6.964;2023-02-11T16:28:29;103060.28;;;10.40;100.00
15308;BME280;7755;52.208;6.964;2023-02-11T16:32:32;103059.63;;;10.38;100.00
15308;BME280;7755;52.208;6.964;2023-02-11T16:36:36;103058.94;;;10.36;100.00
15308;BME280;7755;52.208;6.964;2023-02-11T16:40:39;103068.50;;;10.32;100.00
15308;BME280;7755;52.208;6.964;2023-02-11T16:44:48;103090.25;;;10.32;100.00
15308;BME280;7755;52.208;6.964;2023-02-11T16:48:52;103092.97;;;10.32;100.00
15308;BME280;7755;52.208;6.964;2023-02-11T16:52:56;103096.03;;;10.29;100.00
15308;BME280;7755;52.208;6.964;2023-02-11T16:57:05;103096.41;;;10.26;100.00
15308;BME280;7755;52.208;6.964;2023-02-11T17:01:12;103104.19;;;10.29;100.00
15308;BME280;7755;52.208;6.964;2023-02-11T17:05:17;103114.78;;;10.24;100.00
15308;BME280;7755;52.208;6.964;2023-02-11T17:09:22;103112.38;;;10.21;100.00
15308;BME280;7755;52.208;6.964;2023-02-11T17:13:26;103115.78;;;10.15;100.00
15308;BME280;7755;52.208;6.964;2023-02-11T17:17:30;103115.78;;;10.15;100.00
15308;BME280;7755;52.208;6.964;2023-02-11T17:21:34;103114.47;;;10.10;100.00
15308;BME280;7755;52.208;6.964;2023-02-11T17:25:39;103109.03;;;10.10;100.00
15308;BME280;7755;52.208;6.964;2023-02-11T17:29:42;103107.63;;;10.15;100.00
15308;BME280;7755;52.208;6.964;2023-02-11T17:33:47;103123.94;;;10.15;100.00
15308;BME280;7755;52.208;6.964;2023-02-11T17:37:50;103122.25;;;10.13;100.00
15308;BME280;7755;52.208;6.964;2023-02-11T17:41:54;103123.81;;;10.08;100.00
15308;BME280;7755;52.208;6.964;2023-02-11T17:45:57;103129.13;;;10.01;100.00
15308;BME280;7755;52.208;6.964;2023-02-11T17:50:02;103138.47;;;9.99;100.00
15308;BME280;7755;52.208;6.964;2023-02-11T17:54:09;103132.53;;;9.95;100.00
15308;BME280;7755;52.208;6.964;2023-02-11T17:58:13;103128.00;;;9.88;100.00
15308;BME280;7755;52.208;6.964;2023-02-11T18:02:16;103137.53;;;9.83;100.00
15308;BME280;7755;52.208;6.964;2023-02-11T18:06:20;103137.88;;;9.80;100.00
15308;BME280;7755;52.208;6.964;2023-02-11T18:10:24;103143.31;;;9.80;100.00
15308;BME280;7755;52.208;6.964;2023-02-11T18:14:27;103149.28;;;9.76;100.00
15308;BME280;7755;52.208;6.964;2023-02-11T18:18:31;103154.88;;;9.74;100.00
15308;BME280;7755;52.208;6.964;2023-02-11T18:22:36;103165.59;;;9.76;100.00
15308;BME280;7755;52.208;6.964;2023-02-11T18:26:41;103163.00;;;9.74;100.00
15308;BME280;7755;52.208;6.964;2023-02-11T18:30:44;103167.78;;;9.72;100.00
15308;BME280;7755;52.208;6.964;2023-02-11T18:34:47;103173.03;;;9.74;100.00
15308;BME280;7755;52.208;6.964;2023-02-11T18:38:53;103166.94;;;9.72;100.00
15308;BME280;7755;52.208;6.964;2023-02-11T18:42:57;103180.34;;;9.73;100.00
15308;BME280;7755;52.208;6.964;2023-02-11T18:47:00;103189.53;;;9.72;100.00
15308;BME280;7755;52.208;6.964;2023-02-11T18:51:07;103198.88;;;9.70;100.00
15308;BME280;7755;52.208;6.964;2023-02-11T18:55:11;103198.19;;;9.68;100.00
15308;BME280;7755;52.208;6.964;2023-02-11T18:59:14;103201.91;;;9.67;100.00
15308;BME280;7755;52.208;6.964;2023-02-11T19:03:17;103195.16;;;9.63;100.00
15308;BME280;7755;52.208;6.964;2023-02-11T19:07:21;103219.75;;;9.61;100.00
15308;BME280;7755;52.208;6.964;2023-02-11T19:11:27;103220.28;;;9.65;100.00
15308;BME280;7755;52.208;6.964;2023-02-11T19:15:45;103218.56;;;9.64;100.00
15308;BME280;7755;52.208;6.964;2023-02-11T19:19:49;103222.66;;;9.60;100.00
15308;BME280;7755;52.208;6.964;2023-02-11T19:23:52;103228.25;;;9.58;100.00
15308;BME280;7755;52.208;6.964;2023-02-11T19:27:56;103223.34;;;9.53;100.00
15308;BME280;7755;52.208;6.964;2023-02-11T19:32:01;103236.06;;;9.53;100.00
15308;BME280;7755;52.208;6.964;2023-02-11T19:36:05;103240.47;;;9.54;100.00
15308;BME280;7755;52.208;6.964;2023-02-11T19:40:10;103247.28;;;9.50;100.00
15308;BME280;7755;52.208;6.964;2023-02-11T19:44:14;103261.03;;;9.48;100.00
15308;BME280;7755;52.208;6.964;2023-02-11T19:48:17;103260.34;;;9.46;100.00
15308;BME280;7755;52.208;6.964;2023-02-11T19:52:20;103264.44;;;9.42;100.00
15308;BME280;7755;52.208;6.964;2023-02-11T19:56:23;103263.59;;;9.42;100.00
15308;BME280;7755;52.208;6.964;2023-02-11T20:00:28;103264.75;;;9.39;100.00
15308;BME280;7755;52.208;6.964;2023-02-11T20:04:31;103269.00;;;9.42;100.00
15308;BME280;7755;52.208;6.964;2023-02-11T20:08:36;103284.44;;;9.41;100.00
15308;BME280;7755;52.208;6.964;2023-02-11T20:12:39;103271.72;;;9.42;100.00
15308;BME280;7755;52.208;6.964;2023-02-11T20:16:43;103287.66;;;9.45;100.00
15308;BME280;7755;52.208;6.964;2023-02-11T20:20:51;103284.78;;;9.46;100.00
15308;BME280;7755;52.208;6.964;2023-02-11T20:24:54;103289.34;;;9.46;100.00
15308;BME280;7755;52.208;6.964;2023-02-11T20:28:58;103289.72;;;9.43;100.00
15308;BME280;7755;52.208;6.964;2023-02-11T20:33:04;103289.19;;;9.39;100.00
15308;BME280;7755;52.208;6.964;2023-02-11T20:37:08;103288.69;;;9.36;100.00
15308;BME280;7755;52.208;6.964;2023-02-11T20:41:13;103286.81;;;9.36;100.00
15308;BME280;7755;52.208;6.964;2023-02-11T20:45:16;103293.94;;;9.37;100.00
15308;BME280;7755;52.208;6.964;2023-02-11T20:49:22;103293.94;;;9.37;100.00
15308;BME280;7755;52.208;6.964;2023-02-11T20:53:25;103294.97;;;9.36;100.00
15308;BME280;7755;52.208;6.964;2023-02-11T20:57:30;103290.88;;;9.32;100.00
15308;BME280;7755;52.208;6.964;2023-02-11T21:01:37;103303.78;;;9.30;100.00
15308;BME280;7755;52.208;6.964;2023-02-11T21:05:48;103305.84;;;9.28;100.00
15308;BME280;7755;52.208;6.964;2023-02-11T21:09:52;103303.13;;;9.28;100.00
15308;BME280;7755;52.208;6.964;2023-02-11T21:13:56;103298.69;;;9.27;100.00
15308;BME280;7755;52.208;6.964;2023-02-11T21:17:59;103286.31;;;9.24;100.00
15308;BME280;7755;52.208;6.964;2023-02-11T21:22:03;103283.06;;;9.21;100.00
15308;BME280;7755;52.208;6.964;2023-02-11T21:26:07;103295.13;;;9.18;100.00
15308;BME280;7755;52.208;6.964;2023-02-11T21:30:11;103302.41;;;9.18;100.00
15308;BME280;7755;52.208;6.964;2023-02-11T21:34:14;103293.06;;;9.12;100.00
15308;BME280;7755;52.208;6.964;2023-02-11T21:38:19;103291.03;;;9.06;100.00
15308;BME280;7755;52.208;6.964;2023-02-11T21:42:23;103290.16;;;8.97;100.00
15308;BME280;7755;52.208;6.964;2023-02-11T21:46:26;103303.91;;;8.96;100.00
15308;BME280;7755;52.208;6.964;2023-02-11T21:50:29;103305.78;;;8.95;100.00
15308;BME280;7755;52.208;6.964;2023-02-11T21:54:34;103323.06;;;8.94;100.00
15308;BME280;7755;52.208;6.964;2023-02-11T21:58:37;103325.06;;;8.92;100.00
15308;BME280;7755;52.208;6.964;2023-02-11T22:02:42;103328.97;;;8.90;100.00